Due to severe server failure at the provider, not all demo sites are operational. Will take some days to rebuilt everything.

Demonstration site - Click on the  for more information

This is an optional block. Switch it on/off in your settings-file: $SITE['bannerTop'] = false; or $SITE['bannerBottom'] = false;

You can display ads, any other important text or photo’s using text / html or PHP code.

You can place one or more at the top and or bottom and it can all be different for content / size .



Visit our other weather sites:

Template documentation
and downloads

And another site



Nearby METAR Reports

   
EBAW - Antwerp
Updated: 03-12-2021 04:20
Mostly Cloudy  
Mostly Cloudy  
   Wind: SW 11.1 km/h
Wind: SW 11.1 km/h
Temperature: 2°C
Wind Chill: -1°C
Dew Point: 0°C
Humidity: 87%
Barometer: 1011 hPa
Clouds: Mostly Cloudy
Visibility: More than 10 km
Cloud details: Mostly Cloudy 3400 ft
EBAW 030320Z AUTO 22006KT 9999 // BKN034/// 02/00 Q1011
EBLG - Liège
Updated: 03-12-2021 04:20
Mostly Cloudy  
Mostly Cloudy  
   Wind: SW 22.2 km/h
Wind: SW 22.2 km/h
Temperature: 1°C
Wind Chill: -4°C
Dew Point: 0°C
Humidity: 93%
Barometer: 1012 hPa
Clouds: Mostly Cloudy
Visibility: 6 km
Cloud details: Partly Cloudy 500 ft,
Mostly Cloudy 3000 ft
EBLG 030320Z 23012KT 6000 SCT005 BKN030 01/00 Q1012 TEMPO 3500 BR BKN005
EBCV - Mons/Bergen
Updated: 03-12-2021 04:25
Partly Cloudy  
Partly Cloudy  
   Wind: SW 13 km/h
Wind: SW 13 km/h
Temperature: 0°C
Wind Chill: -4°C
Dew Point: -1°C
Humidity: 93%
Barometer: 1013 hPa
Clouds: Partly Cloudy
Visibility: More than 10 km
Cloud details: Partly Cloudy 17000 ft
EBCV 030325Z AUTO 23007KT 9999 SCT170/// 00/M01 Q1013 BLU
EHBK - Maastricht
Updated: 03-12-2021 04:25
Overcast  
Overcast  
   Wind: SW 16.7 km/h
Wind: SW 16.7 km/h
Temperature: 2°C
Wind Chill: -2°C
Dew Point: 1°C
Humidity: 93%
Barometer: 1011 hPa
Clouds: Overcast
Visibility: 6 km
Cloud details: Mostly Cloudy 500 ft,
Overcast 600 ft
EHBK 030325Z AUTO 23009KT 6000 BKN005 OVC006 02/01 Q1011
ELLX - Luxemburg
Updated: 03-12-2021 04:20
Overcast  
Overcast  
   Wind: SSW 7.4 km/h
Wind: SSW 7.4 km/h
Temperature: 0°C
Wind Chill: -3°C
Dew Point: -1°C
Humidity: 93%
Barometer: 1012 hPa
Clouds: Overcast
Visibility: 9 km
Cloud details: Partly Cloudy 600 ft,
Partly Cloudy 1300 ft,
Overcast 2600 ft
ELLX 030320Z AUTO 20004KT 150V240 9000 SCT006/// SCT013/// OVC026/// M00/M01 Q1012 NOSIG
EBOS - Oostende
Updated: 03-12-2021 04:20
Mostly Cloudy  
Mostly Cloudy  
   Wind: SW 16.7 km/h
Wind: SW 16.7 km/h
Temperature: 1°C
Wind Chill: -3°C
Dew Point: -2°C
Humidity: 81%
Barometer: 1012 hPa
Clouds: Mostly Cloudy
Visibility: More than 10 km
Cloud details: Few Clouds 2300 ft,
Mostly Cloudy 2500 ft
EBOS 030320Z 22009KT 9999 FEW023 BKN025 01/M02 Q1012 NOSIG

Script developed by  Saratoga-weather.org Adapted for the template by  Weerstation Leuven

This is an optional block. Switch it on/off in your settings-file: $SITE['bannerTop'] = false; or $SITE['bannerBottom'] = false;

You can display ads, any other important text or photo’s using text / html or PHP code.

You can place one or more at the top and or bottom and it can all be different for content / size .